Excelsior Springs, MO

4:40 PM CDT on September 30, 2014 (GMT -0500)
Clay County Regional | Change Station
CLOSE
Current Station
Airport
Location: Mosby,
Elevation: 774 ft
Nearby Weather Stations

Elev 774 ft 39.33 °N, 94.31 °W | Updated 5 minutes ago

Scattered Clouds
Scattered Clouds
82 °F
Feels Like 81 °F
N
7
Wind Variable Wind from SSE

Today
High -- | Low -- °F
--% Chance of Precip.
Yesterday
High -- | Low -- °F
Precip. -- in
7:12 AM 7:01 PM
Waxing Crescent, 40% visible
Pressure 29.80 in
Visibility 10.0 miles
Clouds Scattered Clouds 6500 ft
Scattered Clouds 8000 ft
Heat Index 81 °F
Dew Point 54 °F
Humidity 37%
Rainfall 0.00 in
Snow Depth Not available.
UV 2 out of 12
Pollen 3.90 out of 12
Ozone Good
PM2.5 Moderate
Flu Activity Not available.
METAR KGPH 302135Z AUTO 16006KT 10SM SCT065 SCT080 28/12 A2980 RMK AO2

More Conditions Fewer Conditions

Pressure 29.80 in
Visibility 10.0 miles
Clouds Scattered Clouds 6500 ft
Scattered Clouds 8000 ft
Heat Index 81 °F
Dew Point 54 °F
Humidity 37%
Rainfall 0.00 in
Snow Depth Not available.
UV 2 out of 12
Pollen 3.90 out of 12
Ozone Good
PM2.5 Moderate
Flu Activity Not available.
METAR KGPH 302135Z AUTO 16006KT 10SM SCT065 SCT080 28/12 A2980 RMK AO2

More Conditions Fewer Conditions

10-Day Weather Forecast

Almanac

Astronomy

Sep. 30, 2014 Rise Set
Actual Time 7:12 AM CDT 7:01 PM CDT
Civil Twilight 6:45 AM CDT 7:28 PM CDT
Nautical Twilight 6:14 AM CDT 7:59 PM CDT
Astronomical Twilight 5:43 AM CDT 8:30 PM CDT
Moon 1:19 PM CDT 11:33 PM CDT
Length of Visible Light 12h 42m
Length of Day
11h 48m
Tomorrow will be 2m 33s shorter.
Waxing Crescent, 40% of the Moon is Illuminated
Today
Waxing Crescent
Oct 1
First Quarter
Oct 8
Full
Oct 15
Last Quarter
Oct 23
New

Today's Extremes

State Highs State Lows

Community

WunderPhotos

Upload Photos

1,757,755 photos uploaded!

Nearby

Air Quality

  Air Quality AQ Index Pollutant
Yesterday Moderate
PM2.5
Yesterday Moderate
OZONE
Current Moderate
PM2.5
Current Good
OZONE
Tuesday Good
OZONE
Wednesday Good
OZONE

Snow Depth

Station Depth Elevation
No new snow has been reported.

Earthquake Activity

City Distance Mag. Time & Date
No recent earthquake activity has been reported nearby.
Minimum magnitude displayed is 2.5.

Coastal Water Temperatures

Place Temperature
No Stations Reporting

Nearby Weather Stations